Terminal Aerodrome Forecast
Issued by NWS

Home | Current Version | Previous Version | Text Only | Print | Product List | Glossary On
Versions: 1 2 3 4 5 6 7 8 9 10 11 12 13 14 15 16 17 18 19 20 21 22 23
000
FTUS43 KILX 202300
TAFBMI
TAF
KBMI 202340Z 2100/2124 21007KT P6SM BKN100
     FM210800 18005KT 5SM BR VCTS BKN050CB OVC120
     FM211500 22010KT P6SM SCT050 BKN120
     FM212100 21013KT P6SM SCT060=

USA.gov is the U.S. government's official web portal to all federal, state and local government web resources and services.